Time;durP1;ratioP1;P1;durP2;ratioP2;P2;SDS_P1;SDS_P2;PMS_P1;PMS_P2;Temp;Humidity;BMP_temperature;BMP_pressure;BME280_temperature;BME280_humidity;BME280_pressure;Samples;Min_cycle;Max_cycle;Signal;HPM_P1;HPM_P2
2021/10/08 00:01:31;;;;;;;12.15;2.20;;;;;;;11.96;62.35;99233.19;5050490;28;20142;-53
2021/10/08 00:03:58;;;;;;;6.10;2.83;;;;;;;11.96;62.83;99241.09;5051904;28;20017;-52
2021/10/08 00:06:23;;;;;;;4.15;2.42;;;;;;;11.83;62.64;99235.72;5051870;28;20021;-53
2021/10/08 00:08:49;;;;;;;4.25;2.03;;;;;;;11.73;63.06;99242.16;5050449;28;20074;-53
2021/10/08 00:11:16;;;;;;;4.80;2.67;;;;;;;11.58;63.46;99250.16;5051794;28;20109;-52
2021/10/08 00:13:43;;;;;;;7.65;2.92;;;;;;;11.33;63.77;99252.41;5050394;28;20025;-53
2021/10/08 00:16:09;;;;;;;5.88;3.45;;;;;;;11.20;64.86;99257.56;5050377;28;20074;-53
2021/10/08 00:18:36;;;;;;;5.20;2.70;;;;;;;11.06;65.06;99261.09;5051735;28;20104;-52
2021/10/08 00:21:04;;;;;;;6.78;3.50;;;;;;;10.88;65.44;99257.06;5051384;28;20462;-52
2021/10/08 00:23:30;;;;;;;5.28;3.00;;;;;;;10.78;66.14;99259.22;5051687;28;20023;-52
2021/10/08 00:25:57;;;;;;;6.15;2.67;;;;;;;10.66;66.18;99263.31;5051630;28;20064;-53
2021/10/08 00:28:23;;;;;;;8.60;3.17;;;;;;;10.53;66.55;99259.56;5051624;28;20368;-53
2021/10/08 00:30:49;;;;;;;6.43;3.08;;;;;;;10.44;66.72;99255.41;5051249;28;20065;-53
2021/10/08 00:33:15;;;;;;;8.80;4.05;;;;;;;10.25;67.23;99259.44;5051621;28;20038;-53
2021/10/08 00:35:41;;;;;;;4.00;3.05;;;;;;;10.13;68.16;99256.47;5051530;28;20024;-53
2021/10/08 00:38:08;;;;;;;5.40;2.50;;;;;;;10.10;68.24;99251.59;5051588;28;20491;-52
2021/10/08 00:40:36;;;;;;;5.75;3.22;;;;;;;10.19;68.57;99255.72;5051445;28;20052;-53
2021/10/08 00:43:02;;;;;;;9.52;5.25;;;;;;;10.24;68.47;99242.06;5051365;28;20104;-52
2021/10/08 00:45:28;;;;;;;7.57;2.85;;;;;;;10.43;68.15;99248.56;5051405;28;20372;-52
2021/10/08 00:48:08;;;;;;;4.60;3.00;;;;;;;10.43;67.68;99251.19;5050114;28;20036;-52
2021/10/08 00:50:40;;;;;;;3.65;2.67;;;;;;;10.36;67.22;99245.03;5051426;28;20025;-53
2021/10/08 00:53:06;;;;;;;5.72;3.05;;;;;;;10.23;68.15;99243.06;5050144;28;20039;-52
2021/10/08 00:55:36;;;;;;;14.07;4.50;;;;;;;10.17;68.66;99249.84;5051328;28;20100;-53
2021/10/08 00:58:03;;;;;;;5.07;2.40;;;;;;;10.25;68.58;99248.13;5050024;28;20032;-53
2021/10/08 01:00:29;;;;;;;6.68;3.80;;;;;;;10.35;68.00;99251.31;5051290;28;20033;-52
2021/10/08 01:02:55;;;;;;;4.35;3.28;;;;;;;10.25;67.75;99250.75;5049978;28;20029;-53
2021/10/08 01:05:21;;;;;;;3.55;2.03;;;;;;;10.06;68.26;99247.72;5049941;28;20025;-53
2021/10/08 01:07:49;;;;;;;6.10;2.45;;;;;;;9.89;68.80;99247.06;5051278;28;20021;-53
2021/10/08 01:10:15;;;;;;;3.38;2.30;;;;;;;9.72;69.19;99254.31;5049940;28;20048;-53
2021/10/08 01:12:41;;;;;;;4.53;2.65;;;;;;;9.56;70.18;99250.06;5049848;28;20494;-52
2021/10/08 01:15:08;;;;;;;6.28;2.50;;;;;;;9.52;70.73;99248.00;5049870;28;20028;-52
2021/10/08 01:17:37;;;;;;;6.50;2.42;;;;;;;9.47;70.58;99248.50;5051461;28;20364;-53
2021/10/08 01:20:05;;;;;;;5.63;2.38;;;;;;;9.40;71.43;99242.38;5049775;28;20391;-53
2021/10/08 01:22:31;;;;;;;5.13;2.30;;;;;;;9.42;71.13;99250.03;5051144;28;20033;-53
2021/10/08 01:24:56;;;;;;;4.93;3.63;;;;;;;9.51;71.26;99251.59;5051067;28;20074;-53
2021/10/08 01:27:23;;;;;;;21.35;5.00;;;;;;;9.53;71.02;99247.78;5051053;28;20029;-53
2021/10/08 01:29:55;;;;;;;4.88;2.83;;;;;;;9.47;71.50;99239.84;5049572;28;20041;-53
2021/10/08 01:32:22;;;;;;;5.15;3.45;;;;;;;9.51;71.30;99247.16;5052115;28;20514;-53
2021/10/08 01:34:48;;;;;;;11.63;5.82;;;;;;;9.60;71.40;99240.84;5053325;28;20513;-53
2021/10/08 01:37:15;;;;;;;8.70;3.90;;;;;;;9.72;71.20;99249.09;5054572;28;20086;-53
2021/10/08 01:39:41;;;;;;;3.58;2.75;;;;;;;9.87;70.83;99245.63;5054511;28;20028;-53
2021/10/08 01:42:10;;;;;;;8.68;4.57;;;;;;;9.90;69.82;99246.09;5053233;28;20028;-53
2021/10/08 01:44:36;;;;;;;9.15;3.70;;;;;;;9.93;69.90;99250.16;5053154;28;20033;-52
2021/10/08 01:47:02;;;;;;;8.20;3.97;;;;;;;9.97;69.80;99249.59;5053348;28;20044;-53
2021/10/08 01:49:28;;;;;;;8.57;2.95;;;;;;;10.10;69.63;99251.59;5054341;28;20110;-53
2021/10/08 01:51:59;;;;;;;4.85;3.25;;;;;;;10.07;68.95;99251.94;5054301;28;20154;-53
2021/10/08 01:54:24;;;;;;;10.75;4.13;;;;;;;9.94;69.42;99242.13;5054235;28;20025;-53
2021/10/08 01:56:50;;;;;;;7.47;4.18;;;;;;;9.81;69.50;99244.56;5052902;28;20032;-52
2021/10/08 01:59:16;;;;;;;6.05;2.72;;;;;;;9.79;70.51;99239.47;5052862;28;20036;-53
2021/10/08 02:01:42;;;;;;;11.43;4.07;;;;;;;9.83;70.53;99242.56;5054026;28;20478;-52
2021/10/08 02:04:09;;;;;;;8.07;3.38;;;;;;;9.98;70.74;99234.69;5052832;28;20568;-52
2021/10/08 02:06:35;;;;;;;7.05;3.03;;;;;;;10.12;70.53;99235.66;5054009;28;20021;-52
2021/10/08 02:09:04;;;;;;;4.40;2.58;;;;;;;10.17;69.99;99241.97;5053979;28;20539;-53
2021/10/08 02:11:30;;;;;;;8.90;3.08;;;;;;;10.20;69.72;99243.41;5053981;28;20036;-53
2021/10/08 02:13:56;;;;;;;5.95;3.67;;;;;;;10.15;69.53;99237.91;5052617;28;20029;-53
2021/10/08 02:16:22;;;;;;;6.85;2.97;;;;;;;10.12;69.83;99238.28;5052586;28;20033;-53
2021/10/08 02:18:50;;;;;;;10.90;7.60;;;;;;;10.15;69.58;99236.09;5052487;28;20028;-53
2021/10/08 02:21:17;;;;;;;6.45;2.65;;;;;;;10.12;69.65;99233.88;5052415;28;20020;-53
2021/10/08 02:23:43;;;;;;;8.73;3.30;;;;;;;10.24;70.11;99238.63;5052403;28;20028;-53
2021/10/08 02:26:08;;;;;;;7.50;2.78;;;;;;;10.38;70.09;99237.78;5052376;28;20491;-53
2021/10/08 02:28:34;;;;;;;6.80;3.72;;;;;;;10.61;69.92;99240.28;5052332;28;20513;-52
2021/10/08 02:31:00;;;;;;;5.82;2.92;;;;;;;10.77;69.33;99231.34;5052075;28;20049;-53
2021/10/08 02:33:26;;;;;;;9.00;3.53;;;;;;;10.92;68.85;99234.69;5053503;28;20013;-52
2021/10/08 02:35:52;;;;;;;10.35;3.40;;;;;;;11.06;68.70;99237.44;5052160;28;20021;-52
2021/10/08 02:38:18;;;;;;;7.32;3.72;;;;;;;11.28;68.34;99240.84;5052175;28;20083;-52
2021/10/08 02:40:44;;;;;;;14.50;4.25;;;;;;;11.43;67.40;99233.69;5051961;28;20077;-53
2021/10/08 02:43:11;;;;;;;8.27;4.55;;;;;;;11.58;66.93;99231.75;5053292;28;20130;-53
2021/10/08 02:45:37;;;;;;;10.30;3.47;;;;;;;11.69;66.52;99230.41;5051976;28;20025;-53
2021/10/08 02:48:03;;;;;;;12.73;3.75;;;;;;;11.77;66.19;99227.63;5051909;28;20028;-52
2021/10/08 02:50:28;;;;;;;8.63;3.55;;;;;;;11.90;66.48;99231.34;5053150;28;20357;-53
2021/10/08 02:52:54;;;;;;;6.05;3.80;;;;;;;12.23;66.12;99225.41;5053145;28;20021;-52
2021/10/08 02:55:20;;;;;;;7.28;3.00;;;;;;;12.51;65.53;99225.28;5053056;28;20064;-53
2021/10/08 02:57:46;;;;;;;5.22;3.10;;;;;;;12.79;64.89;99225.13;5053036;28;20491;-53
2021/10/08 03:00:12;;;;;;;7.85;2.80;;;;;;;13.02;64.37;99223.91;5051632;28;20025;-53
2021/10/08 03:02:40;;;;;;;11.73;3.33;;;;;;;13.26;63.71;99230.38;5051674;28;20028;-53
2021/10/08 03:05:08;;;;;;;10.30;3.30;;;;;;;13.42;63.37;99235.28;5052919;28;20029;-52
2021/10/08 03:07:33;;;;;;;11.55;3.33;;;;;;;13.53;63.05;99229.38;5051538;28;20525;-52
2021/10/08 03:09:59;;;;;;;5.93;3.28;;;;;;;13.68;62.53;99229.16;5051563;28;20032;-53
2021/10/08 03:12:25;;;;;;;4.68;2.70;;;;;;;13.71;61.38;99234.00;5052760;28;20046;-53
2021/10/08 03:14:51;;;;;;;6.45;2.85;;;;;;;13.46;61.79;99238.31;5052678;28;20024;-53
2021/10/08 03:17:17;;;;;;;10.38;4.22;;;;;;;13.38;62.14;99234.03;5052764;28;20494;-53
2021/10/08 03:19:43;;;;;;;6.55;3.50;;;;;;;13.43;61.78;99242.16;5052584;28;20561;-53
2021/10/08 03:22:09;;;;;;;9.07;4.00;;;;;;;13.37;62.04;99238.50;5052611;28;20025;-53
2021/10/08 03:24:35;;;;;;;7.20;3.20;;;;;;;13.33;61.05;99247.03;5051256;28;20115;-53
2021/10/08 03:27:01;;;;;;;6.25;5.10;;;;;;;13.15;61.18;99251.06;5051189;28;20112;-52
2021/10/08 03:29:27;;;;;;;7.47;3.30;;;;;;;12.94;60.60;99251.28;5051194;28;20191;-53
2021/10/08 03:31:53;;;;;;;11.05;3.55;;;;;;;12.68;60.99;99252.88;5052248;28;20195;-53
2021/10/08 03:34:18;;;;;;;6.72;4.05;;;;;;;12.43;61.65;99244.69;5051081;28;20100;-53
2021/10/08 03:36:53;;;;;;;17.20;11.60;;;;;;;12.33;61.99;99252.94;5052311;28;20078;-52
2021/10/08 03:39:23;;;;;;;8.05;3.10;;;;;;;12.30;62.47;99249.94;5052415;28;20036;-52
2021/10/08 03:41:50;;;;;;;7.05;3.55;;;;;;;12.16;62.72;99252.50;5052188;28;20025;-52
2021/10/08 03:44:16;;;;;;;10.35;3.45;;;;;;;12.06;63.63;99252.06;5052166;28;20438;-53
2021/10/08 03:47:00;;;;;;;7.80;2.95;;;;;;;12.08;64.08;99255.31;5050849;28;20023;-52
2021/10/08 03:49:26;;;;;;;8.00;4.40;;;;;;;12.23;64.39;99260.41;5052189;28;20372;-53
2021/10/08 03:51:53;;;;;;;9.75;3.40;;;;;;;12.27;64.68;99250.31;5052107;28;20056;-52
2021/10/08 03:54:21;;;;;;;11.32;3.58;;;;;;;12.36;64.81;99246.50;5050521;28;20018;-53
2021/10/08 03:56:47;;;;;;;11.20;3.80;;;;;;;12.65;64.73;99255.06;5050475;28;20028;-53
2021/10/08 03:59:14;;;;;;;6.47;3.58;;;;;;;12.88;63.90;99250.25;5052003;28;20032;-53
2021/10/08 04:01:40;;;;;;;10.90;3.83;;;;;;;12.75;63.46;99255.50;5050498;28;20025;-53
2021/10/08 04:04:07;;;;;;;8.80;3.53;;;;;;;12.54;63.80;99252.03;5051937;28;20548;-53
2021/10/08 04:06:35;;;;;;;13.98;4.20;;;;;;;12.27;63.80;99252.94;5050521;28;20078;-53
2021/10/08 04:09:03;;;;;;;23.25;16.27;;;;;;;12.15;64.28;99250.06;5051849;28;20021;-53
2021/10/08 04:11:29;;;;;;;12.82;7.45;;;;;;;12.13;63.91;99250.28;5051826;28;20025;-52
2021/10/08 04:13:56;;;;;;;13.48;5.65;;;;;;;12.14;64.16;99251.88;5050421;28;20041;-52
2021/10/08 04:16:23;;;;;;;8.02;4.47;;;;;;;12.17;63.77;99248.88;5051745;28;20427;-53
2021/10/08 04:18:48;;;;;;;10.93;4.65;;;;;;;12.16;63.87;99256.97;5050403;28;20033;-53
2021/10/08 04:21:14;;;;;;;12.05;4.57;;;;;;;12.24;63.79;99259.41;5051600;28;20036;-52
2021/10/08 04:23:40;;;;;;;11.40;4.38;;;;;;;12.24;63.93;99263.88;5050376;28;20025;-53
2021/10/08 04:26:06;;;;;;;12.45;4.38;;;;;;;12.18;64.72;99263.63;5051697;28;20043;-52
2021/10/08 04:28:33;;;;;;;10.55;5.82;;;;;;;12.22;65.22;99258.00;5051649;28;20013;-52
2021/10/08 04:30:59;;;;;;;23.50;12.98;;;;;;;12.41;65.25;99269.59;5049992;28;20414;-53
2021/10/08 04:33:26;;;;;;;7.32;4.30;;;;;;;12.41;64.53;99267.75;5051544;28;20021;-53
2021/10/08 04:35:59;;;;;;;11.70;3.95;;;;;;;12.23;65.18;99263.03;5050243;28;20025;-53
2021/10/08 04:38:27;;;;;;;14.48;4.35;;;;;;;12.06;64.90;99259.94;5051632;28;20033;-52
2021/10/08 04:40:56;;;;;;;13.45;4.43;;;;;;;11.90;65.15;99270.81;5051504;28;20511;-53
2021/10/08 04:43:25;;;;;;;6.32;4.28;;;;;;;11.77;65.87;99271.50;5051502;28;20036;-52
2021/10/08 04:45:51;;;;;;;24.98;10.63;;;;;;;11.65;65.71;99271.25;5051426;28;20087;-52
2021/10/08 04:48:17;;;;;;;10.55;5.00;;;;;;;11.39;66.03;99274.50;5050123;28;20037;-52
2021/10/08 04:50:43;;;;;;;11.38;4.47;;;;;;;11.30;66.65;99273.00;5051373;28;20024;-53
2021/10/08 04:53:22;;;;;;;11.93;4.78;;;;;;;11.19;66.75;99269.88;5051429;28;20059;-53
2021/10/08 04:55:51;;;;;;;11.32;3.72;;;;;;;11.10;67.21;99265.75;5051406;28;20075;-52
2021/10/08 04:58:17;;;;;;;5.63;3.42;;;;;;;11.03;67.53;99266.69;5050108;28;20029;-53
2021/10/08 05:00:45;;;;;;;9.98;4.50;;;;;;;10.96;67.99;99267.44;5051206;28;20025;-53
2021/10/08 05:03:20;;;;;;;6.47;4.10;;;;;;;10.81;68.10;99268.53;5049877;28;20405;-53
2021/10/08 05:05:50;;;;;;;6.88;5.18;;;;;;;10.65;68.80;99270.41;5051392;28;20024;-52
2021/10/08 05:08:17;;;;;;;18.48;6.05;;;;;;;10.56;69.26;99271.50;5054001;28;20029;-53
2021/10/08 05:10:44;;;;;;;10.75;5.85;;;;;;;10.53;69.58;99277.13;5053742;28;20025;-52
2021/10/08 05:13:11;;;;;;;10.07;5.78;;;;;;;10.59;69.69;99274.56;5055069;28;20029;-52
2021/10/08 05:15:37;;;;;;;8.32;4.97;;;;;;;10.74;69.33;99266.63;5054925;28;20048;-53
2021/10/08 05:18:03;;;;;;;13.95;5.78;;;;;;;10.94;68.89;99268.66;5053669;28;20118;-53
2021/10/08 05:20:29;;;;;;;16.90;8.25;;;;;;;11.20;68.52;99273.31;5053534;28;20028;-53
2021/10/08 05:22:55;;;;;;;20.92;8.20;;;;;;;11.33;67.70;99273.44;5054851;28;20083;-53
2021/10/08 05:25:21;;;;;;;6.93;5.38;;;;;;;11.45;66.91;99275.53;5053523;28;20021;-53
2021/10/08 05:27:46;;;;;;;15.77;4.10;;;;;;;11.47;66.80;99270.88;5054810;28;20079;-53
2021/10/08 05:30:13;;;;;;;5.97;3.72;;;;;;;11.56;66.45;99272.38;5054518;28;20072;-53
2021/10/08 05:32:40;;;;;;;12.00;6.28;;;;;;;11.61;66.59;99275.25;5054686;28;20104;-52
2021/10/08 05:35:07;;;;;;;6.85;3.95;;;;;;;11.61;66.26;99277.88;5054666;28;20029;-53
2021/10/08 05:37:33;;;;;;;5.95;4.40;;;;;;;11.62;65.87;99268.97;5053233;28;20021;-53
2021/10/08 05:40:02;;;;;;;12.35;6.63;;;;;;;11.53;66.08;99272.75;5054482;28;20104;-53
2021/10/08 05:42:28;;;;;;;19.65;6.85;;;;;;;11.53;66.54;99273.59;5054515;28;20029;-53
2021/10/08 05:44:55;;;;;;;12.32;6.50;;;;;;;11.60;66.71;99274.44;5053186;28;20572;-52
2021/10/08 05:47:21;;;;;;;18.40;9.60;;;;;;;11.78;66.04;99271.31;5054463;28;20033;-53
2021/10/08 05:49:47;;;;;;;16.83;8.75;;;;;;;11.91;65.78;99280.31;5053160;28;20025;-53
2021/10/08 05:52:13;;;;;;;11.48;9.30;;;;;;;11.98;66.18;99276.69;5053398;28;20036;-53
2021/10/08 05:54:41;;;;;;;9.70;7.03;;;;;;;12.15;65.62;99271.09;5052999;28;20491;-53
2021/10/08 05:57:08;;;;;;;9.27;6.28;;;;;;;12.22;65.07;99277.22;5054139;28;20048;-53
2021/10/08 05:59:34;;;;;;;15.55;8.20;;;;;;;12.17;65.21;99283.09;5054450;28;20071;-53
2021/10/08 06:02:01;;;;;;;32.67;9.38;;;;;;;12.21;65.52;99280.03;5036095;28;20082;-52
2021/10/08 06:04:27;;;;;;;20.17;8.75;;;;;;;12.26;65.12;99275.81;5054105;28;20025;-53
2021/10/08 06:06:53;;;;;;;20.67;8.00;;;;;;;12.29;65.63;99274.59;5052972;28;20036;-53
2021/10/08 06:09:19;;;;;;;22.02;7.57;;;;;;;12.52;65.24;99272.47;5054016;28;20033;-53
2021/10/08 06:11:46;;;;;;;18.20;6.68;;;;;;;12.67;64.77;99279.38;5052616;28;20035;-53
2021/10/08 06:14:11;;;;;;;21.63;7.20;;;;;;;12.63;65.50;99286.06;5052665;28;20125;-53
2021/10/08 06:16:37;;;;;;;26.85;7.47;;;;;;;12.76;64.91;99288.75;5054001;28;20455;-52
2021/10/08 06:19:03;;;;;;;39.50;7.35;;;;;;;12.87;64.93;99288.13;5052098;28;20525;-53
2021/10/08 06:21:29;;;;;;;515.38;385.70;;;;;;;13.03;64.92;99291.41;5053629;28;20067;-53
2021/10/08 06:23:55;;;;;;;140.80;85.55;;;;;;;13.16;64.58;99288.81;5052483;28;20395;-53
2021/10/08 06:26:20;;;;;;;98.47;31.08;;;;;;;13.24;64.40;99299.13;5052363;28;20086;-53
2021/10/08 06:28:46;;;;;;;125.57;83.90;;;;;;;13.28;64.05;99296.88;5052625;28;20514;-53
2021/10/08 06:31:12;;;;;;;62.55;26.83;;;;;;;13.21;64.01;99291.63;5053170;28;20056;-53
2021/10/08 06:33:38;;;;;;;33.33;11.73;;;;;;;13.23;63.81;99299.34;5052516;28;20052;-53
2021/10/08 06:36:04;;;;;;;28.15;15.30;;;;;;;13.18;63.72;99299.94;5053494;28;20021;-53
2021/10/08 06:38:29;;;;;;;34.72;8.98;;;;;;;13.18;64.00;99310.50;5053470;28;20036;-53
2021/10/08 06:40:55;;;;;;;24.15;6.88;;;;;;;13.21;64.11;99301.38;5052365;28;20438;-53
2021/10/08 06:43:21;;;;;;;16.98;7.60;;;;;;;13.19;63.80;99309.47;5052026;28;20035;-53
2021/10/08 06:45:48;;;;;;;16.00;7.30;;;;;;;13.16;63.77;99312.50;5053520;28;20036;-53
2021/10/08 06:48:14;;;;;;;54.13;22.52;;;;;;;13.31;63.54;99307.88;5053314;28;20029;-53
2021/10/08 06:50:40;;;;;;;50.22;13.32;;;;;;;13.50;63.34;99315.97;5051867;28;20055;-53
2021/10/08 06:53:06;;;;;;;24.42;7.13;;;;;;;13.63;62.82;99313.34;5053204;28;20029;-53
2021/10/08 06:55:31;;;;;;;24.73;7.05;;;;;;;13.69;62.95;99320.44;5053640;28;20558;-52
2021/10/08 06:57:57;;;;;;;28.48;8.55;;;;;;;13.70;62.50;99319.44;5053082;28;20048;-53
2021/10/08 07:00:23;;;;;;;35.55;7.30;;;;;;;13.57;62.58;99309.69;5052834;28;20037;-52
2021/10/08 07:02:55;;;;;;;19.83;7.88;;;;;;;13.45;63.13;99313.97;5053015;28;20021;-53
2021/10/08 07:05:23;;;;;;;15.68;8.57;;;;;;;13.37;62.39;99312.34;5053252;28;20025;-53
2021/10/08 07:07:51;;;;;;;276.08;246.45;;;;;;;13.27;63.68;99316.38;5053001;28;20049;-53
2021/10/08 07:10:17;;;;;;;66.25;59.13;;;;;;;13.46;63.40;99320.03;5051607;28;20021;-53
2021/10/08 07:12:43;;;;;;;235.43;190.43;;;;;;;13.71;63.11;99310.50;5051496;28;20490;-53
2021/10/08 07:15:18;;;;;;;265.05;228.95;;;;;;;13.77;62.87;99317.59;5052702;28;20029;-53
2021/10/08 07:17:49;;;;;;;75.18;63.35;;;;;;;13.82;62.14;99322.25;5052693;28;20098;-53
2021/10/08 07:20:18;;;;;;;20.88;15.68;;;;;;;13.83;62.28;99323.06;5052821;28;20090;-53
2021/10/08 07:22:44;;;;;;;26.70;13.38;;;;;;;13.99;61.82;99320.00;5052619;28;20025;-52
2021/10/08 07:25:11;;;;;;;14.02;7.32;;;;;;;14.19;61.45;99322.56;5052582;28;20021;-53
2021/10/08 07:27:38;;;;;;;14.18;6.97;;;;;;;14.38;61.03;99331.44;5051643;28;20025;-53
2021/10/08 07:30:04;;;;;;;41.05;22.33;;;;;;;14.24;60.77;99322.75;5050166;28;20044;-53
2021/10/08 07:32:31;;;;;;;247.70;178.93;;;;;;;14.05;61.31;99335.00;5052755;28;20601;-53
2021/10/08 07:34:57;;;;;;;72.57;39.47;;;;;;;14.04;61.05;99324.63;5051073;28;20464;-52
2021/10/08 07:37:23;;;;;;;56.75;24.45;;;;;;;14.09;61.44;99328.28;5052471;28;20033;-52
2021/10/08 07:39:52;;;;;;;115.40;81.35;;;;;;;14.29;61.20;99324.78;5050963;28;20031;-52
2021/10/08 07:42:18;;;;;;;37.40;24.27;;;;;;;14.41;60.37;99325.75;5050906;28;20029;-53
2021/10/08 07:44:44;;;;;;;16.27;9.20;;;;;;;14.43;60.29;99314.94;5052212;28;20025;-52
2021/10/08 07:47:09;;;;;;;30.05;15.93;;;;;;;14.62;59.87;99315.94;5034649;28;20033;-52
2021/10/08 07:49:35;;;;;;;36.13;23.65;;;;;;;14.91;59.11;99312.72;5052158;28;20021;-53
2021/10/08 07:52:01;;;;;;;52.80;32.05;;;;;;;15.10;58.75;99318.09;5052075;28;20029;-52
2021/10/08 07:54:26;;;;;;;19.23;9.70;;;;;;;15.19;58.24;99314.13;5050796;28;20494;-52
2021/10/08 07:56:55;;;;;;;16.33;8.40;;;;;;;15.07;58.24;99316.69;5051012;28;20509;-52
2021/10/08 07:59:21;;;;;;;22.73;10.82;;;;;;;14.92;58.84;99314.31;5051917;28;20033;-52
2021/10/08 08:01:47;;;;;;;16.05;8.45;;;;;;;14.96;58.65;99312.88;5050552;28;20390;-53
2021/10/08 08:04:13;;;;;;;65.28;23.70;;;;;;;15.08;58.91;99323.59;5050602;28;20075;-52
2021/10/08 08:06:38;;;;;;;10.23;7.50;;;;;;;15.21;58.25;99322.66;5052081;28;20098;-52
2021/10/08 08:09:04;;;;;;;16.80;7.32;;;;;;;15.30;57.67;99316.09;5051796;28;20487;-52
2021/10/08 08:11:30;;;;;;;11.68;7.72;;;;;;;15.13;57.64;99315.00;5050522;28;20021;-53
2021/10/08 08:13:56;;;;;;;16.83;7.55;;;;;;;15.19;57.51;99319.44;5050446;28;20578;-53
2021/10/08 08:16:22;;;;;;;11.60;7.30;;;;;;;15.47;56.88;99313.72;5050417;28;20044;-53
2021/10/08 08:18:49;;;;;;;14.93;6.90;;;;;;;15.86;55.96;99310.97;5051684;28;20036;-53
2021/10/08 08:21:15;;;;;;;14.43;7.55;;;;;;;16.26;54.98;99302.56;5051565;28;20032;-52
2021/10/08 08:23:41;;;;;;;13.27;6.38;;;;;;;16.64;53.87;99298.84;5050645;28;20025;-50
2021/10/08 08:26:07;;;;;;;13.20;6.97;;;;;;;16.91;53.33;99300.13;5050363;28;20025;-51
2021/10/08 08:28:32;;;;;;;10.68;6.65;;;;;;;17.07;52.45;99293.34;5050314;28;20033;-51
2021/10/08 08:30:59;;;;;;;10.55;6.55;;;;;;;17.14;52.70;99298.53;5051483;28;20133;-51
2021/10/08 08:33:24;;;;;;;10.40;5.85;;;;;;;17.65;51.98;99289.13;5051530;28;20029;-51
2021/10/08 08:35:51;;;;;;;16.50;8.98;;;;;;;18.76;50.14;99288.19;5050278;28;20044;-50
2021/10/08 08:38:16;;;;;;;10.68;6.72;;;;;;;20.22;46.95;99277.56;5051894;28;20021;-50
2021/10/08 08:40:42;;;;;;;9.82;6.53;;;;;;;21.94;42.85;99273.97;5051617;28;20548;-51
2021/10/08 08:43:08;;;;;;;14.65;5.65;;;;;;;23.05;39.52;99272.94;5054347;28;20135;-52
2021/10/08 08:45:34;;;;;;;14.40;5.25;;;;;;;22.91;38.72;99272.63;5055564;28;20550;-51
2021/10/08 08:48:09;;;;;;;18.58;7.20;;;;;;;22.02;39.88;99278.00;5055556;28;20017;-51
2021/10/08 08:50:39;;;;;;;18.35;7.22;;;;;;;21.11;40.80;99282.50;5055526;28;20552;-51
2021/10/08 08:53:05;;;;;;;17.38;6.00;;;;;;;20.15;42.14;99291.09;5055760;28;20052;-51
2021/10/08 08:55:32;;;;;;;13.90;6.20;;;;;;;19.30;44.26;99295.75;5055376;28;20032;-51
2021/10/08 08:57:58;;;;;;;19.92;6.88;;;;;;;18.87;45.11;99290.00;5055603;28;20051;-51
2021/10/08 09:00:24;;;;;;;8.57;5.65;;;;;;;18.55;45.82;99297.63;5055203;28;20028;-51
2021/10/08 09:03:00;;;;;;;10.68;5.88;;;;;;;18.31;46.53;99294.25;5054044;28;20382;-50
2021/10/08 09:05:30;;;;;;;11.48;5.78;;;;;;;17.88;47.44;99298.16;5055194;28;20021;-50
2021/10/08 09:08:06;;;;;;;12.55;5.35;;;;;;;17.63;47.74;99301.03;5055502;28;20024;-50
2021/10/08 09:10:35;;;;;;;12.75;6.88;;;;;;;17.42;48.22;99300.53;5053842;28;20090;-50
2021/10/08 09:13:01;;;;;;;19.73;6.15;;;;;;;17.22;48.80;99298.22;5053821;28;20425;-51
2021/10/08 09:15:30;;;;;;;18.25;5.75;;;;;;;17.01;49.42;99301.41;5053640;28;20052;-51
2021/10/08 09:18:06;;;;;;;25.17;7.72;;;;;;;17.12;50.00;99305.94;5055235;28;20021;-50
2021/10/08 09:20:33;;;;;;;12.18;5.88;;;;;;;17.36;49.38;99302.28;5054922;28;20017;-50
2021/10/08 09:22:59;;;;;;;20.40;6.53;;;;;;;17.69;49.33;99298.25;5053643;28;20066;-51
2021/10/08 09:25:38;;;;;;;10.30;5.90;;;;;;;18.11;48.03;99297.28;5055258;28;20085;-50
2021/10/08 09:28:11;;;;;;;21.83;6.18;;;;;;;18.24;47.65;99302.34;5055075;28;20459;-50
2021/10/08 09:30:43;;;;;;;11.45;5.55;;;;;;;18.47;47.33;99292.69;5053123;28;20049;-50
2021/10/08 09:33:13;;;;;;;13.70;5.13;;;;;;;18.83;46.41;99296.84;5053415;28;20491;-50
2021/10/08 09:35:39;;;;;;;12.27;6.90;;;;;;;18.93;45.72;99299.69;5053393;28;20515;-51
2021/10/08 09:38:12;;;;;;;20.70;6.68;;;;;;;19.07;45.29;99307.34;5054663;28;20029;-51
2021/10/08 09:40:47;;;;;;;38.42;8.15;;;;;;;19.35;44.73;99306.47;5054665;28;20112;-50
2021/10/08 09:43:33;;;;;;;16.70;6.82;;;;;;;19.44;45.03;99307.69;5053491;28;20029;-51
2021/10/08 09:46:05;;;;;;;17.27;5.35;;;;;;;19.67;44.15;99292.56;5053142;28;20029;-51
2021/10/08 09:48:31;;;;;;;11.10;4.78;;;;;;;20.09;43.38;99300.88;5054440;28;20120;-51
2021/10/08 09:51:21;;;;;;;11.98;6.53;;;;;;;20.20;42.40;99290.34;5054692;28;20108;-50
2021/10/08 09:53:46;;;;;;;23.98;5.20;;;;;;;20.19;42.25;99304.75;5053711;28;20043;-51
2021/10/08 09:56:31;;;;;;;12.60;5.63;;;;;;;19.79;42.45;99298.63;5052938;28;20127;-50
2021/10/08 09:58:58;;;;;;;32.55;6.20;;;;;;;19.56;43.08;99303.09;5054515;28;20158;-51
2021/10/08 10:01:30;;;;;;;29.83;6.53;;;;;;;19.68;43.06;99305.66;5052750;28;20029;-51
2021/10/08 10:03:59;;;;;;;7.53;4.82;;;;;;;20.06;42.80;99309.41;5054463;28;20044;-50
2021/10/08 10:06:26;;;;;;;13.50;4.70;;;;;;;20.63;41.42;99310.88;5054077;28;20028;-51
2021/10/08 10:08:52;;;;;;;12.95;5.05;;;;;;;20.92;40.38;99303.41;5054062;28;20029;-51
2021/10/08 10:11:21;;;;;;;24.20;5.63;;;;;;;20.93;40.56;99304.22;5053934;28;20033;-51
2021/10/08 10:13:52;;;;;;;7.85;4.07;;;;;;;21.07;40.01;99300.09;5053935;28;20048;-51
2021/10/08 10:16:19;;;;;;;7.10;4.38;;;;;;;21.15;39.91;99291.59;5052616;28;20029;-51
2021/10/08 10:18:52;;;;;;;12.50;5.00;;;;;;;20.82;39.65;99291.84;5053816;28;20051;-51
2021/10/08 10:21:27;;;;;;;13.02;4.43;;;;;;;20.50;41.06;99287.22;5052700;28;20052;-51
2021/10/08 10:24:01;;;;;;;13.57;4.75;;;;;;;21.56;39.56;99280.44;5053816;28;20039;-51
2021/10/08 10:26:30;;;;;;;8.82;3.97;;;;;;;22.04;38.67;99283.91;5035880;28;20395;-51
2021/10/08 10:28:57;;;;;;;13.48;4.10;;;;;;;22.11;38.31;99279.13;5052379;28;20037;-50
2021/10/08 10:31:24;;;;;;;12.55;4.63;;;;;;;22.11;38.00;99283.66;5053286;28;20144;-51
2021/10/08 10:33:56;;;;;;;4.82;4.00;;;;;;;21.93;38.41;99280.38;5036092;28;20048;-51
2021/10/08 10:36:23;;;;;;;12.07;5.18;;;;;;;21.84;38.22;99275.78;5053749;28;20380;-51
2021/10/08 10:38:50;;;;;;;9.15;4.40;;;;;;;21.53;38.67;99284.44;5053480;28;20032;-51
2021/10/08 10:41:18;;;;;;;6.53;4.97;;;;;;;21.41;38.68;99285.63;5053275;28;20028;-50
2021/10/08 10:43:51;;;;;;;11.98;4.60;;;;;;;21.31;39.11;99283.72;5053692;28;20052;-51
2021/10/08 10:46:39;;;;;;;9.60;6.05;;;;;;;21.87;38.84;99278.75;5053381;28;20052;-52
2021/10/08 10:49:26;;;;;;;6.93;4.65;;;;;;;23.11;36.58;99282.56;5053384;28;20032;-51
2021/10/08 10:52:01;;;;;;;6.97;4.30;;;;;;;24.62;34.42;99278.09;5053454;28;20033;-51
2021/10/08 10:54:52;;;;;;;9.68;5.45;;;;;;;24.84;34.15;99285.75;5053403;28;20490;-51
2021/10/08 10:57:30;;;;;;;5.97;4.47;;;;;;;25.67;32.55;99283.16;5053433;28;20494;-51
2021/10/08 11:00:23;;;;;;;11.95;5.10;;;;;;;26.31;30.90;99273.78;5053175;28;20461;-51
2021/10/08 11:03:06;;;;;;;8.60;4.35;;;;;;;26.13;30.96;99271.09;5050090;28;20119;-51
2021/10/08 11:05:34;;;;;;;6.55;3.80;;;;;;;26.02;31.06;99281.19;5052908;28;20037;-51
2021/10/08 11:08:11;;;;;;;8.98;4.65;;;;;;;26.14;30.55;99283.44;5051644;28;20078;-50
2021/10/08 11:10:44;;;;;;;30.90;5.13;;;;;;;26.26;29.91;99281.16;5053407;28;20621;-51
2021/10/08 11:13:27;;;;;;;11.27;4.65;;;;;;;25.43;31.31;99277.75;5052881;28;20439;-51
2021/10/08 11:15:59;;;;;;;22.30;4.68;;;;;;;24.91;32.06;99286.25;5052755;28;20045;-51
2021/10/08 11:18:43;;;;;;;13.20;4.07;;;;;;;24.60;32.68;99287.53;5052886;28;20781;-50
2021/10/08 11:21:32;;;;;;;42.67;7.45;;;;;;;24.23;33.26;99286.88;5052854;28;20029;-51
2021/10/08 11:24:19;;;;;;;13.13;4.50;;;;;;;23.43;34.40;99289.50;5052008;28;20033;-50
2021/10/08 11:27:00;;;;;;;19.70;4.32;;;;;;;22.77;35.18;99287.59;5052593;28;20029;-51
2021/10/08 11:29:30;;;;;;;36.35;5.57;;;;;;;22.49;35.73;99281.66;5052503;28;20415;-51
2021/10/08 11:32:08;;;;;;;21.35;8.00;;;;;;;22.42;36.20;99283.81;5052245;28;20073;-50